Time;durP1;ratioP1;P1;durP2;ratioP2;P2;SDS_P1;SDS_P2;PMS_P1;PMS_P2;Temp;Humidity;BMP_temperature;BMP_pressure;BME280_temperature;BME280_humidity;BME280_pressure;Samples;Min_cycle;Max_cycle;Signal;HPM_P1;HPM_P2
2022/06/22 07:09:37;;;;;;;5.25;2.25;;;18.40;99.90;;;;;;6277880;22;20024;-93
2022/06/22 07:12:26;;;;;;;4.35;2.13;;;18.60;99.90;;;;;;6225672;22;20023;-90
2022/06/22 07:14:52;;;;;;;5.65;1.73;;;18.80;99.90;;;;;;6250261;22;20011;-89
2022/06/22 07:17:25;;;;;;;4.13;1.52;;;18.90;99.90;;;;;;6226321;22;20386;-91
2022/06/22 07:22:35;;;;;;;4.53;1.98;;;19.40;99.90;;;;;;6218044;22;20021;-91
2022/06/22 07:40:35;;;;;;;4.60;1.98;;;20.30;99.90;;;;;;6186782;22;20017;-88
2022/06/22 07:43:01;;;;;;;4.22;1.80;;;20.10;99.90;;;;;;6159829;23;20051;-87
2022/06/22 07:45:29;;;;;;;6.90;2.70;;;20.00;99.90;;;;;;6159300;23;20013;-87
2022/06/22 07:48:29;;;;;;;4.28;2.00;;;19.90;99.90;;;;;;6160082;23;20045;-88
2022/06/22 07:50:58;;;;;;;4.22;2.30;;;19.80;99.90;;;;;;6159164;23;20013;-89
2022/06/22 07:53:48;;;;;;;5.53;2.05;;;19.70;99.90;;;;;;6170225;23;20028;-90
2022/06/22 08:01:19;;;;;;;4.80;1.90;;;19.40;99.90;;;;;;6185972;22;20279;-88
2022/06/22 08:03:57;;;;;;;4.35;2.10;;;19.30;99.90;;;;;;6160003;23;20455;-88
2022/06/22 08:06:41;;;;;;;4.35;1.77;;;19.20;99.90;;;;;;6186422;23;20107;-89
2022/06/22 12:17:46;;;;;;;5.45;2.08;;;22.30;99.90;;;;;;6276463;22;20388;-93
2022/06/22 12:20:33;;;;;;;4.57;1.67;;;22.40;99.90;;;;;;6227432;22;20027;-93
2022/06/22 12:23:17;;;;;;;;;;;22.50;99.70;;;;;;6225342;22;20023;-91
2022/06/22 12:26:04;;;;;;;2.75;1.30;;;22.40;99.20;;;;;;6225683;22;19915;-93
2022/06/22 12:29:06;;;;;;;3.67;1.10;;;22.50;99.00;;;;;;6225320;22;20054;-91
2022/06/22 12:43:44;;;;;;;3.03;1.00;;;22.80;96.90;;;;;;6276291;22;20349;-90
2022/06/22 17:18:32;;;;;;;1.45;0.70;;;19.70;99.90;;;;;;6273695;22;20027;-92
2022/06/22 17:21:13;;;;;;;3.67;0.90;;;19.60;99.90;;;;;;6222762;22;20496;-92
2022/06/22 17:23:52;;;;;;;2.35;0.90;;;19.50;99.90;;;;;;6224870;22;20019;-91
2022/06/22 17:26:29;;;;;;;3.50;0.90;;;19.50;99.90;;;;;;6224752;22;20475;-91
2022/06/22 17:29:15;;;;;;;1.60;0.90;;;19.40;99.90;;;;;;6225565;22;20114;-92
2022/06/22 17:31:53;;;;;;;2.70;0.73;;;19.40;99.90;;;;;;6230406;22;20007;-89
2022/06/22 17:34:34;;;;;;;2.20;0.82;;;19.40;99.90;;;;;;6225408;22;20055;-90
2022/06/22 17:37:28;;;;;;;2.63;0.80;;;19.40;99.90;;;;;;6224968;22;20019;-91
2022/06/22 17:40:24;;;;;;;2.28;0.68;;;19.30;99.90;;;;;;6224383;22;20445;-93
2022/06/22 17:42:54;;;;;;;1.40;0.55;;;19.30;99.90;;;;;;6224656;22;20020;-91
2022/06/22 17:45:38;;;;;;;1.70;0.70;;;19.30;99.90;;;;;;6224668;22;20391;-91
2022/06/22 17:48:18;;;;;;;1.75;0.50;;;19.30;99.90;;;;;;6224314;22;20072;-92
2022/06/22 17:56:01;;;;;;;1.13;0.50;;;19.00;99.90;;;;;;6216409;22;20450;-91
2022/06/22 17:58:39;;;;;;;1.05;0.50;;;18.90;99.90;;;;;;6191255;23;20100;-90
2022/06/22 18:15:34;;;;;;;;;;;;;;;;;;;;;
2022/06/22 18:43:16;;;;;;;2.13;0.80;;;18.20;99.90;;;;;;6185901;23;20021;-89
2022/06/22 18:46:05;;;;;;;1.30;0.60;;;18.20;99.90;;;;;;6182769;23;20020;-91
2022/06/22 18:48:40;;;;;;;1.38;0.70;;;18.20;99.90;;;;;;6161132;23;20009;-91
2022/06/22 18:51:24;;;;;;;3.33;0.82;;;18.20;99.90;;;;;;6161120;23;20024;-91
2022/06/22 18:53:59;;;;;;;1.23;0.50;;;18.20;99.90;;;;;;6160880;23;20017;-90
2022/06/22 18:56:26;;;;;;;1.60;0.70;;;18.10;99.90;;;;;;6160900;23;20435;-90
2022/06/22 18:59:00;;;;;;;1.52;0.60;;;18.00;99.90;;;;;;6161036;23;20099;-88
2022/06/22 19:01:32;;;;;;;2.08;0.90;;;17.90;99.90;;;;;;6160796;23;20017;-90
2022/06/22 19:04:22;;;;;;;2.83;0.90;;;17.80;99.90;;;;;;6160967;23;20071;-91
2022/06/22 19:07:07;;;;;;;1.88;0.70;;;17.70;99.90;;;;;;6160746;23;20013;-89
2022/06/22 19:15:05;;;;;;;1.60;0.70;;;17.60;99.90;;;;;;6186722;22;20029;-90
2022/06/22 19:18:09;;;;;;;2.10;0.77;;;17.50;99.90;;;;;;6137204;23;20025;-89
2022/06/22 19:20:57;;;;;;;;;;;;;;;;;;;;;
2022/06/22 20:45:43;;;;;;;1.17;0.60;;;16.30;99.90;;;;;;6276464;22;20027;-90
2022/06/22 20:48:43;;;;;;;1.70;0.80;;;16.20;99.90;;;;;;6224900;22;20045;-92
2022/06/22 20:51:15;;;;;;;1.05;0.60;;;16.10;99.90;;;;;;6224224;22;20107;-89
2022/06/22 20:53:43;;;;;;;1.73;0.80;;;16.10;99.90;;;;;;6224606;22;20043;-90
2022/06/22 20:56:27;;;;;;;4.63;0.90;;;16.10;99.90;;;;;;6233265;22;20015;-90
2022/06/22 20:59:08;;;;;;;2.20;0.80;;;16.10;99.90;;;;;;6227111;22;20012;-95
2022/06/22 23:31:56;;;;;;;3.15;1.50;;;15.00;99.90;;;;;;6277561;22;20050;-95
2022/06/22 23:34:44;;;;;;;4.13;1.77;;;15.00;99.90;;;;;;6226843;22;20098;-96
2022/06/22 23:50:53;;;;;;;3.17;1.55;;;14.90;99.90;;;;;;6213593;22;20024;-95
2022/06/22 23:53:28;;;;;;;4.20;1.65;;;14.90;99.90;;;;;;6190121;23;20067;-95
